This is the latest recevied weather packets stored in our database for station/object KI8L. If no packets are shown the sender has not sent any weather packets the latest 10 day(s).
| Time | Temp. | Humidity | Pressure | Rain* | Wind** | Luminosity | Snow |
|---|---|---|---|---|---|---|---|
| 1778097442 | 12.78° C | 60% | 1014.2 hPa | 0 mm | - | 158 W/m² | - |
| 1778097139 | 12.78° C | 61% | 1014.4 hPa | 0 mm | - | 178 W/m² | - |
| 1778096836 | 12.22° C | 59% | 1014.4 hPa | 0 mm | - | 239 W/m² | - |
| 1778096532 | 12.22° C | 61% | 1014.6 hPa | 0 mm | - | 181 W/m² | - |
| 1778096231 | 12.78° C | 68% | 1014.5 hPa | 0 mm | - | 187 W/m² | - |
| 1778095927 | 12.22° C | 64% | 1014.5 hPa | 0 mm | - | 203 W/m² | - |
| 1778095624 | 12.22° C | 59% | 1014.5 hPa | 0 mm | - | 157 W/m² | - |
| 1778095321 | 12.22° C | 62% | 1014 hPa | 0 mm | - | 172 W/m² | - |
| 1778095018 | 12.22° C | 61% | 1014 hPa | 0 mm | - | 150 W/m² | - |
| 1778094713 | 12.22° C | 62% | 1014.1 hPa | 0 mm | - | 153 W/m² | - |
| 1778094411 | 12.22° C | 64% | 1014.4 hPa | 0 mm | - | 145 W/m² | - |
| 1778094107 | 12.22° C | 61% | 1014.4 hPa | 0 mm | - | 140 W/m² | - |
| 1778093804 | 12.22° C | 62% | 1014.5 hPa | 0 mm | - | 111 W/m² | - |
| 1778093501 | 12.22° C | 65% | 1014.6 hPa | 0 mm | - | 102 W/m² | - |
| 1778093198 | 12.78° C | 67% | 1014.7 hPa | 0 mm | - | 183 W/m² | - |
| 1778092895 | 12.78° C | 65% | 1014.4 hPa | 0 mm | - | 372 W/m² | - |
| 1778092592 | 12.78° C | 61% | 1014.4 hPa | 0 mm | - | 221 W/m² | - |
| 1778092288 | 12.22° C | 61% | 1014.4 hPa | 0 mm | - | 325 W/m² | - |
| 1778091985 | 13.33° C | 60% | 1014.5 hPa | 0 mm | - | 189 W/m² | - |
| 1778091682 | 13.89° C | 64% | 1014.2 hPa | 0 mm | - | 755 W/m² | - |
| 1778091380 | 12.78° C | 67% | 1014.3 hPa | 0 mm | - | 271 W/m² | - |
| 1778091077 | 13.33° C | 62% | 1014.2 hPa | 0 mm | - | 693 W/m² | - |
| 1778090774 | 13.89° C | 62% | 1014.5 hPa | 0 mm | - | 828 W/m² | - |
| 1778090470 | 13.33° C | 64% | 1014.2 hPa | 0 mm | - | 416 W/m² | - |
| 1778090167 | 13.89° C | 64% | 1014.3 hPa | 0 mm | - | 896 W/m² | - |
* Rain latest hour (hover to see other rain measurements)
** Current wind speed in m/s (hover to see current wind gust speed)